createdAt,value
2023-02-14T00:01:53.258Z,11.02
2023-02-14T00:04:21.477Z,11.10
2023-02-14T00:06:49.482Z,11.40
2023-02-14T00:09:18.962Z,11.55
2023-02-14T00:11:47.353Z,12.70
2023-02-14T00:14:34.654Z,14.38
2023-02-14T00:17:04.388Z,15.85
2023-02-14T00:19:34.949Z,12.73
2023-02-14T00:22:03.398Z,14.40
2023-02-14T00:24:31.634Z,15.23
2023-02-14T00:27:00.441Z,17.67
2023-02-14T00:29:31.594Z,15.85
2023-02-14T00:32:00.123Z,17.73
2023-02-14T00:34:30.073Z,16.85
2023-02-14T00:37:00.633Z,14.43
2023-02-14T00:39:28.470Z,18.05
2023-02-14T00:41:56.437Z,12.32
2023-02-14T00:44:25.226Z,13.45
2023-02-14T00:46:53.039Z,10.88
2023-02-14T00:49:21.169Z,13.05
2023-02-14T00:51:50.805Z,16.95
2023-02-14T00:54:18.802Z,11.40
2023-02-14T00:56:47.030Z,13.75
2023-02-14T00:59:15.077Z,10.75
2023-02-14T01:01:43.485Z,11.27
2023-02-14T01:04:11.610Z,9.40
2023-02-14T01:06:39.808Z,10.25
2023-02-14T01:09:09.483Z,10.77
2023-02-14T01:11:37.856Z,9.23
2023-02-14T01:14:05.899Z,8.50
2023-02-14T01:16:34.260Z,11.40
2023-02-14T01:19:02.449Z,9.20
2023-02-14T01:21:32.105Z,9.93
2023-02-14T01:24:02.506Z,8.90
2023-02-14T01:26:32.012Z,8.85
2023-02-14T01:29:02.360Z,9.05
2023-02-14T01:31:32.162Z,8.80
2023-02-14T01:34:00.910Z,9.80
2023-02-14T01:36:31.461Z,10.93
2023-02-14T01:39:02.704Z,9.32
2023-02-14T01:41:34.952Z,9.10
2023-02-14T01:44:05.065Z,7.00
2023-02-14T01:46:34.666Z,7.72
2023-02-14T01:49:06.198Z,9.15
2023-02-14T01:51:40.984Z,10.77
2023-02-14T01:54:09.975Z,9.57
2023-02-14T01:56:44.914Z,9.90
2023-02-14T01:59:18.686Z,10.00
2023-02-14T02:01:49.010Z,12.43
2023-02-14T02:04:23.160Z,10.43
2023-02-14T02:06:55.772Z,10.57
2023-02-14T02:09:29.260Z,10.98
2023-02-14T02:11:58.917Z,15.73
2023-02-14T02:14:26.852Z,10.52
2023-02-14T02:17:15.435Z,11.07
2023-02-14T02:20:27.210Z,9.75
2023-02-14T02:23:43.525Z,11.20
2023-02-14T02:26:44.581Z,11.07
2023-02-14T02:29:41.381Z,10.75
2023-02-14T02:32:44.955Z,13.85
2023-02-14T02:35:31.756Z,12.50
2023-02-14T02:38:32.722Z,11.80
2023-02-14T02:41:06.274Z,11.48
2023-02-14T02:43:44.594Z,11.60
2023-02-14T02:46:40.320Z,9.90
2023-02-14T02:49:40.538Z,12.02
2023-02-14T02:52:35.192Z,8.80
2023-02-14T02:55:08.190Z,11.00
2023-02-14T02:57:40.464Z,11.80
2023-02-14T03:00:12.703Z,12.40
2023-02-14T03:03:03.133Z,11.70
2023-02-14T03:05:35.040Z,13.43
2023-02-14T03:08:05.688Z,10.27
2023-02-14T03:10:37.667Z,12.77
2023-02-14T03:13:27.074Z,10.93
2023-02-14T03:16:19.403Z,8.95
2023-02-14T03:19:04.486Z,9.63
2023-02-14T03:21:37.707Z,8.50
2023-02-14T03:24:14.101Z,12.60
2023-02-14T03:26:49.932Z,8.90
2023-02-14T03:29:26.027Z,10.13
2023-02-14T03:32:02.278Z,9.40
2023-02-14T03:34:35.710Z,8.35
2023-02-14T03:37:09.057Z,9.07
2023-02-14T03:39:44.778Z,11.05
2023-02-14T03:42:19.461Z,10.73
2023-02-14T03:44:49.792Z,8.70
2023-02-14T03:47:20.936Z,10.60
2023-02-14T03:49:54.046Z,8.25
2023-02-14T03:52:23.387Z,9.57
2023-02-14T03:54:56.526Z,9.90
2023-02-14T03:57:29.156Z,9.10
2023-02-14T03:59:57.706Z,7.97
2023-02-14T04:02:31.539Z,7.72
2023-02-14T04:05:02.069Z,10.25
2023-02-14T04:07:30.295Z,8.43
2023-02-14T04:09:59.716Z,9.40
2023-02-14T04:12:37.450Z,7.63
2023-02-14T04:15:07.104Z,8.32
2023-02-14T04:17:53.791Z,7.43
2023-02-14T04:20:22.524Z,6.65
2023-02-14T04:22:51.784Z,9.55
2023-02-14T04:25:21.855Z,7.25
2023-02-14T04:27:49.909Z,12.05
2023-02-14T04:30:18.578Z,10.23
2023-02-14T04:32:46.905Z,9.82
2023-02-14T04:35:14.810Z,9.05
2023-02-14T04:37:43.133Z,8.55
2023-02-14T04:40:11.999Z,10.95
2023-02-14T04:42:41.541Z,8.73
2023-02-14T04:45:09.798Z,8.15
2023-02-14T04:47:38.144Z,10.63
2023-02-14T04:50:07.654Z,9.57
2023-02-14T04:52:35.766Z,9.52
2023-02-14T04:55:04.665Z,8.52
2023-02-14T04:57:32.806Z,8.93
2023-02-14T05:00:02.255Z,9.70
2023-02-14T05:02:30.253Z,10.43
2023-02-14T05:04:58.061Z,9.52
2023-02-14T05:07:26.114Z,12.57
2023-02-14T05:09:54.054Z,13.65
2023-02-14T05:12:22.036Z,8.88
2023-02-14T05:14:49.953Z,8.57
2023-02-14T05:17:19.385Z,10.27
2023-02-14T05:19:47.259Z,9.02
2023-02-14T05:22:16.870Z,9.57
2023-02-14T05:24:46.262Z,9.57
2023-02-14T05:27:14.113Z,10.98
2023-02-14T05:29:42.164Z,9.23
2023-02-14T05:32:10.016Z,9.68
2023-02-14T05:34:39.382Z,8.77
2023-02-14T05:37:07.281Z,8.65
2023-02-14T05:39:35.215Z,8.95
2023-02-14T05:42:03.678Z,8.40
2023-02-14T05:44:31.577Z,8.07
2023-02-14T05:46:59.506Z,7.25
2023-02-14T05:49:29.709Z,9.90
2023-02-14T05:51:59.446Z,12.38
2023-02-14T05:54:27.395Z,9.50
2023-02-14T05:56:55.341Z,11.27
2023-02-14T05:59:23.292Z,8.45
2023-02-14T06:01:51.154Z,7.63
2023-02-14T06:04:19.060Z,8.70
2023-02-14T06:06:46.967Z,9.00
2023-02-14T06:09:16.581Z,10.80
2023-02-14T06:11:44.438Z,9.07
2023-02-14T06:14:12.268Z,9.13
2023-02-14T06:16:40.358Z,12.10
2023-02-14T06:19:08.408Z,11.15
2023-02-14T06:21:36.391Z,12.00
2023-02-14T06:24:04.249Z,11.82
2023-02-14T06:26:36.356Z,13.77
2023-02-14T06:29:04.881Z,13.13
2023-02-14T06:31:32.765Z,14.52
2023-02-14T06:34:00.582Z,12.75
2023-02-14T06:36:29.003Z,9.93
2023-02-14T06:38:56.834Z,11.35
2023-02-14T06:41:24.553Z,13.20
2023-02-14T06:43:54.236Z,11.30
2023-02-14T06:46:22.324Z,11.95
2023-02-14T06:48:50.173Z,11.10
2023-02-14T06:51:17.931Z,14.48
2023-02-14T06:53:45.851Z,15.13
2023-02-14T06:56:13.569Z,13.32
2023-02-14T06:58:41.383Z,17.33
2023-02-14T07:01:10.562Z,13.50
2023-02-14T07:03:38.509Z,14.63
2023-02-14T07:06:06.472Z,13.38
2023-02-14T07:08:34.292Z,12.93
2023-02-14T07:11:02.954Z,13.82
2023-02-14T07:13:30.986Z,13.63
2023-02-14T07:15:58.936Z,11.90
2023-02-14T07:18:28.314Z,13.48
2023-02-14T07:20:56.800Z,11.75
2023-02-14T07:23:24.818Z,10.90
2023-02-14T07:25:52.629Z,12.52
2023-02-14T07:28:21.315Z,12.68
2023-02-14T07:30:49.940Z,10.63
2023-02-14T07:33:17.678Z,8.77
2023-02-14T07:35:46.866Z,9.40
2023-02-14T07:38:14.629Z,8.98
2023-02-14T07:40:42.550Z,10.00
2023-02-14T07:43:10.274Z,12.77
2023-02-14T07:45:38.155Z,10.05
2023-02-14T07:48:06.138Z,12.93
2023-02-14T07:50:34.080Z,13.45
2023-02-14T07:53:03.337Z,19.25
2023-02-14T07:55:31.276Z,12.98
2023-02-14T07:57:59.089Z,11.15
2023-02-14T08:00:27.336Z,9.80
2023-02-14T08:02:56.328Z,8.95
2023-02-14T08:05:24.414Z,12.23
2023-02-14T08:07:52.359Z,11.75
2023-02-14T08:10:21.751Z,10.35
2023-02-14T08:13:01.669Z,9.68
2023-02-14T08:15:49.366Z,11.02
2023-02-14T08:18:20.548Z,13.00
2023-02-14T08:20:50.167Z,11.50
2023-02-14T08:23:19.449Z,11.75
2023-02-14T08:25:49.226Z,11.23
2023-02-14T08:28:17.184Z,13.48
2023-02-14T08:30:45.999Z,11.00
2023-02-14T08:33:14.025Z,9.98
2023-02-14T08:35:41.970Z,11.60
2023-02-14T08:38:09.861Z,12.90
2023-02-14T08:40:37.890Z,13.27
2023-02-14T08:43:08.053Z,12.82
2023-02-14T08:45:36.488Z,10.63
2023-02-14T08:48:06.736Z,12.38
2023-02-14T08:50:35.396Z,14.25
2023-02-14T08:53:07.596Z,11.50
2023-02-14T08:55:36.154Z,11.75
2023-02-14T08:58:04.418Z,11.18
2023-02-14T09:00:34.458Z,12.95
2023-02-14T09:03:02.491Z,15.05
2023-02-14T09:05:30.422Z,14.10
2023-02-14T09:07:58.189Z,14.23
2023-02-14T09:10:26.855Z,13.30
2023-02-14T09:12:54.946Z,12.38
2023-02-14T09:15:22.661Z,12.23
2023-02-14T09:17:52.127Z,15.02
2023-02-14T09:20:20.112Z,10.75
2023-02-14T09:22:48.895Z,11.23
2023-02-14T09:25:17.089Z,12.98
2023-02-14T09:27:45.498Z,11.73
2023-02-14T09:30:14.533Z,12.52
2023-02-14T09:32:42.432Z,13.50
2023-02-14T09:35:30.315Z,12.63
2023-02-14T09:38:17.096Z,13.32
2023-02-14T09:40:45.307Z,15.55
2023-02-14T09:43:21.599Z,12.23
2023-02-14T09:45:53.748Z,13.48
2023-02-14T09:48:28.376Z,11.63
2023-02-14T09:51:00.753Z,12.13
2023-02-14T09:53:30.798Z,14.70
2023-02-14T09:56:06.213Z,14.60
2023-02-14T09:58:37.455Z,15.05
2023-02-14T10:01:15.600Z,13.63
2023-02-14T10:04:13.722Z,14.93
2023-02-14T10:06:49.257Z,15.77
2023-02-14T10:09:31.278Z,14.45
2023-02-14T10:12:00.916Z,14.75
2023-02-14T10:14:34.025Z,15.65
2023-02-14T10:17:07.349Z,16.83
2023-02-14T10:19:39.778Z,15.38
2023-02-14T10:22:14.738Z,17.45
2023-02-14T10:24:46.224Z,15.38
2023-02-14T10:27:29.677Z,16.60
2023-02-14T10:29:57.659Z,15.02
2023-02-14T10:32:32.478Z,15.38
2023-02-14T10:35:04.910Z,16.13
2023-02-14T10:37:49.858Z,14.60
2023-02-14T10:40:44.100Z,14.45
2023-02-14T10:43:23.179Z,14.98
2023-02-14T10:45:59.253Z,13.52
2023-02-14T10:48:36.295Z,13.50
2023-02-14T10:51:12.879Z,15.30
2023-02-14T10:56:20.270Z,12.93
2023-02-14T10:58:51.429Z,12.73
2023-02-14T11:01:20.204Z,14.27
2023-02-14T11:03:55.212Z,12.85
2023-02-14T11:06:23.028Z,11.55
2023-02-14T11:08:52.256Z,12.32
2023-02-14T11:11:25.332Z,11.70
2023-02-14T11:13:53.244Z,11.60
2023-02-14T11:16:31.184Z,12.30
2023-02-14T11:19:18.477Z,15.52
2023-02-14T11:24:25.356Z,10.68
2023-02-14T11:26:55.929Z,13.55
2023-02-14T11:29:29.055Z,14.00
2023-02-14T11:32:06.091Z,11.13
2023-02-14T11:34:37.416Z,13.02
2023-02-14T11:37:26.501Z,12.13
2023-02-14T11:39:58.315Z,12.05
2023-02-14T11:42:41.802Z,12.90
2023-02-14T11:45:29.079Z,12.45
2023-02-14T11:50:55.927Z,12.27
2023-02-14T11:53:26.637Z,13.88
2023-02-14T11:55:58.116Z,15.13
2023-02-14T11:58:34.076Z,13.10
2023-02-14T12:01:03.361Z,14.27
2023-02-14T12:03:39.412Z,15.35
2023-02-14T12:06:07.422Z,15.38
2023-02-14T12:08:39.083Z,15.57
2023-02-14T12:11:20.569Z,15.75
2023-02-14T12:13:56.802Z,15.30
2023-02-14T12:16:29.208Z,15.20
2023-02-14T12:19:03.378Z,14.18
2023-02-14T12:21:44.592Z,13.77
2023-02-14T12:24:19.012Z,16.65
2023-02-14T12:26:53.508Z,15.48
2023-02-14T12:29:26.808Z,15.38
2023-02-14T12:32:00.368Z,15.65
2023-02-14T12:34:28.366Z,12.88
2023-02-14T12:37:17.235Z,14.35
2023-02-14T12:40:05.099Z,12.23
2023-02-14T12:43:01.513Z,14.27
2023-02-14T12:45:47.448Z,14.38
2023-02-14T12:48:33.999Z,11.55
2023-02-14T12:51:08.917Z,12.82
2023-02-14T12:53:51.149Z,15.05
2023-02-14T12:56:28.581Z,13.68
2023-02-14T12:59:09.614Z,14.57
2023-02-14T13:02:10.944Z,14.30
2023-02-14T13:05:05.932Z,13.75
2023-02-14T13:07:56.406Z,15.75
2023-02-14T13:10:40.129Z,14.95
2023-02-14T13:13:17.288Z,15.73
2023-02-14T13:15:55.345Z,14.55
2023-02-14T13:18:33.898Z,12.68
2023-02-14T13:21:06.111Z,14.82
2023-02-14T13:23:40.516Z,15.00
2023-02-14T13:26:13.136Z,14.48
2023-02-14T13:28:47.106Z,12.90
2023-02-14T13:31:17.854Z,14.57
2023-02-14T13:33:50.748Z,16.42
2023-02-14T13:36:19.590Z,13.63
2023-02-14T13:38:50.213Z,13.40
2023-02-14T13:41:20.087Z,13.38
2023-02-14T13:43:54.304Z,12.88
2023-02-14T13:46:49.025Z,12.57
2023-02-14T13:49:30.746Z,12.88
2023-02-14T13:52:01.537Z,13.32
2023-02-14T13:54:36.199Z,13.05
2023-02-14T13:57:26.950Z,10.98
2023-02-14T14:00:32.408Z,11.60
2023-02-14T14:03:02.116Z,14.32
2023-02-14T14:06:05.103Z,10.65
2023-02-14T14:08:50.432Z,13.93
2023-02-14T14:11:57.496Z,15.57
2023-02-14T14:14:36.411Z,12.70
2023-02-14T14:17:20.671Z,10.80
2023-02-14T14:20:10.703Z,10.20
2023-02-14T14:22:53.169Z,15.00
2023-02-14T14:25:31.655Z,11.60
2023-02-14T14:28:00.769Z,11.65
2023-02-14T14:30:33.449Z,13.65
2023-02-14T14:33:14.184Z,9.90
2023-02-14T14:35:53.436Z,9.95
2023-02-14T14:38:23.332Z,11.27
2023-02-14T14:40:52.014Z,10.20
2023-02-14T14:43:26.925Z,33.17
2023-02-14T14:45:56.426Z,15.93
2023-02-14T14:48:30.932Z,11.20
2023-02-14T14:51:01.196Z,15.70
2023-02-14T14:53:35.188Z,13.57
2023-02-14T14:56:03.822Z,10.02
2023-02-14T14:58:37.667Z,12.02
2023-02-14T15:01:07.793Z,10.30
2023-02-14T15:03:35.722Z,18.58
2023-02-14T15:06:08.343Z,11.98
2023-02-14T15:08:36.807Z,13.27
2023-02-14T15:11:09.589Z,11.10
2023-02-14T15:13:50.957Z,11.77
2023-02-14T15:16:21.492Z,9.40
2023-02-14T15:18:50.918Z,9.20
2023-02-14T15:21:20.270Z,19.90
2023-02-14T15:23:48.600Z,31.30
2023-02-14T15:26:30.263Z,15.73
2023-02-14T15:29:01.078Z,11.23
2023-02-14T15:31:35.894Z,14.35
2023-02-14T15:34:05.152Z,11.65
2023-02-14T15:36:35.535Z,14.02
2023-02-14T15:39:07.070Z,15.95
2023-02-14T15:41:34.991Z,12.35
2023-02-14T15:44:02.755Z,18.98
2023-02-14T15:46:35.132Z,17.58
2023-02-14T15:49:09.641Z,9.45
2023-02-14T15:51:39.845Z,9.48
2023-02-14T15:54:18.628Z,8.90
2023-02-14T15:56:49.893Z,11.40
2023-02-14T15:59:19.642Z,12.68
2023-02-14T16:01:52.922Z,12.68
2023-02-14T16:04:25.627Z,13.00
2023-02-14T16:07:24.868Z,9.85
2023-02-14T16:10:23.168Z,14.00
2023-02-14T16:12:57.947Z,8.57
2023-02-14T16:15:27.726Z,9.88
2023-02-14T16:17:55.619Z,14.10
2023-02-14T16:20:30.214Z,9.38
2023-02-14T16:23:23.588Z,8.45
2023-02-14T16:25:52.302Z,10.00
2023-02-14T16:28:20.612Z,10.70
2023-02-14T16:30:54.811Z,9.77
2023-02-14T16:33:25.597Z,9.60
2023-02-14T16:35:54.806Z,12.13
2023-02-14T16:38:24.067Z,7.40
2023-02-14T16:40:54.548Z,11.60
2023-02-14T16:43:38.538Z,9.48
2023-02-14T16:46:06.444Z,11.70
2023-02-14T16:48:34.561Z,10.52
2023-02-14T16:51:02.887Z,13.05
2023-02-14T16:53:32.670Z,14.27
2023-02-14T16:56:00.878Z,24.73
2023-02-14T16:58:33.708Z,16.95
2023-02-14T17:01:02.262Z,24.13
2023-02-14T17:03:30.607Z,19.50
2023-02-14T17:06:00.595Z,18.85
2023-02-14T17:08:29.759Z,16.27
2023-02-14T17:11:01.703Z,16.15
2023-02-14T17:13:33.751Z,12.13
2023-02-14T17:16:02.023Z,16.85
2023-02-14T17:18:32.832Z,14.65
2023-02-14T17:21:01.673Z,14.55
2023-02-14T17:23:29.865Z,18.65
2023-02-14T17:25:59.359Z,14.20
2023-02-14T17:28:27.358Z,13.85
2023-02-14T17:30:55.675Z,15.70
2023-02-14T17:33:23.852Z,17.38
2023-02-14T17:35:51.926Z,13.98
2023-02-14T17:38:21.773Z,19.08
2023-02-14T17:40:49.820Z,15.40
2023-02-14T17:43:19.496Z,14.13
2023-02-14T17:45:47.490Z,17.70
2023-02-14T17:48:15.629Z,15.02
2023-02-14T17:50:43.910Z,16.45
2023-02-14T17:53:12.772Z,13.75
2023-02-14T17:55:40.802Z,14.13
2023-02-14T17:58:08.937Z,15.05
2023-02-14T18:00:38.477Z,13.32
2023-02-14T18:03:06.618Z,13.90
2023-02-14T18:05:36.915Z,15.40
2023-02-14T18:08:05.307Z,13.00
2023-02-14T18:10:33.187Z,16.02
2023-02-14T18:13:01.329Z,16.08
2023-02-14T18:15:29.301Z,14.65
2023-02-14T18:17:59.448Z,13.82
2023-02-14T18:20:27.506Z,14.73
2023-02-14T18:22:55.634Z,15.65
2023-02-14T18:25:23.625Z,17.77
2023-02-14T18:27:51.499Z,18.00
2023-02-14T18:30:20.006Z,17.80
2023-02-14T18:32:48.349Z,21.08
2023-02-14T18:35:17.892Z,22.17
2023-02-14T18:37:45.795Z,34.30
2023-02-14T18:40:20.356Z,30.02
2023-02-14T18:42:48.398Z,27.75
2023-02-14T18:45:16.503Z,34.22
2023-02-14T18:47:56.344Z,36.47
2023-02-14T18:50:25.883Z,37.10
2023-02-14T18:52:54.233Z,39.67
2023-02-14T18:55:22.422Z,33.70
2023-02-14T18:57:50.746Z,32.60
2023-02-14T19:00:19.226Z,30.98
2023-02-14T19:02:47.634Z,31.02
2023-02-14T19:05:15.625Z,26.38
2023-02-14T19:07:46.397Z,26.85
2023-02-14T19:10:14.475Z,26.08
2023-02-14T19:12:42.439Z,21.10
2023-02-14T19:15:10.778Z,21.05
2023-02-14T19:17:39.810Z,24.75
2023-02-14T19:20:08.923Z,21.02
2023-02-14T19:22:40.137Z,20.85
2023-02-14T19:25:09.989Z,23.05
2023-02-14T19:27:38.262Z,25.92
2023-02-14T19:30:07.841Z,25.98
2023-02-14T19:32:35.922Z,27.33
2023-02-14T19:35:03.985Z,28.50
2023-02-14T19:37:32.215Z,29.45
2023-02-14T19:40:00.595Z,28.95
2023-02-14T19:42:30.213Z,28.90
2023-02-14T19:44:58.422Z,29.23
2023-02-14T19:47:39.872Z,26.23
2023-02-14T19:50:14.285Z,32.45
2023-02-14T19:52:44.196Z,33.03
2023-02-14T19:55:21.666Z,31.65
2023-02-14T19:57:51.484Z,28.60
2023-02-14T20:00:21.301Z,29.83
2023-02-14T20:02:49.669Z,32.03
2023-02-14T20:05:18.839Z,32.20
2023-02-14T20:07:54.761Z,39.40
2023-02-14T20:10:23.912Z,43.50
2023-02-14T20:12:53.455Z,47.15
2023-02-14T20:15:21.618Z,40.35
2023-02-14T20:17:49.769Z,35.22
2023-02-14T20:20:18.298Z,32.40
2023-02-14T20:22:46.317Z,30.38
2023-02-14T20:25:14.558Z,25.83
2023-02-14T20:27:42.828Z,25.38
2023-02-14T20:30:13.684Z,24.67
2023-02-14T20:32:41.921Z,27.40
2023-02-14T20:35:09.995Z,28.30
2023-02-14T20:37:38.707Z,28.15
2023-02-14T20:40:10.229Z,30.42
2023-02-14T20:42:39.905Z,27.60
2023-02-14T20:45:09.198Z,28.13
2023-02-14T20:47:39.258Z,31.20
2023-02-14T20:50:08.789Z,26.58
2023-02-14T20:52:37.493Z,26.35
2023-02-14T20:55:06.404Z,26.52
2023-02-14T20:57:38.910Z,27.05
2023-02-14T21:00:08.985Z,25.63
2023-02-14T21:02:38.694Z,26.83
2023-02-14T21:05:07.294Z,26.88
2023-02-14T21:07:35.218Z,26.85
2023-02-14T21:10:03.369Z,29.52
2023-02-14T21:12:33.650Z,28.73
2023-02-14T21:15:01.980Z,28.90
2023-02-14T21:17:30.271Z,25.77
2023-02-14T21:19:59.852Z,26.48
2023-02-14T21:22:28.324Z,27.30
2023-02-14T21:24:56.895Z,21.60
2023-02-14T21:27:25.296Z,18.98
2023-02-14T21:29:53.296Z,19.15
2023-02-14T21:32:21.443Z,16.88
2023-02-14T21:34:49.842Z,22.30
2023-02-14T21:37:19.386Z,17.10
2023-02-14T21:39:47.299Z,19.73
2023-02-14T21:42:17.561Z,19.08
2023-02-14T21:45:04.120Z,17.55
2023-02-14T21:47:32.166Z,17.15
2023-02-14T21:50:18.297Z,17.98
2023-02-14T21:52:47.599Z,20.67
2023-02-14T21:55:15.901Z,17.60
2023-02-14T21:57:44.095Z,19.58
2023-02-14T22:00:13.182Z,17.42
2023-02-14T22:02:41.345Z,17.73
2023-02-14T22:05:09.687Z,19.02
2023-02-14T22:07:37.786Z,18.73
2023-02-14T22:10:08.049Z,17.35
2023-02-14T22:12:36.002Z,16.63
2023-02-14T22:15:04.695Z,24.85
2023-02-14T22:17:33.627Z,24.92
2023-02-14T22:20:01.544Z,21.92
2023-02-14T22:22:29.477Z,23.05
2023-02-14T22:24:57.204Z,21.00
2023-02-14T22:27:27.674Z,21.13
2023-02-14T22:29:55.600Z,19.17
2023-02-14T22:32:23.473Z,18.80
2023-02-14T22:34:51.333Z,15.77
2023-02-14T22:37:19.268Z,16.25
2023-02-14T22:39:47.756Z,17.55
2023-02-14T22:42:16.611Z,17.55
2023-02-14T22:44:46.042Z,15.52
2023-02-14T22:47:14.028Z,16.17
2023-02-14T22:49:41.830Z,15.63
2023-02-14T22:52:09.601Z,13.80
2023-02-14T22:54:38.600Z,16.95
2023-02-14T22:57:06.613Z,15.55
2023-02-14T22:59:34.571Z,14.82
2023-02-14T23:02:11.294Z,16.08
2023-02-14T23:04:39.153Z,14.65
2023-02-14T23:07:07.186Z,16.23
2023-02-14T23:09:35.127Z,17.80
2023-02-14T23:12:03.393Z,15.57
2023-02-14T23:14:49.769Z,15.65
2023-02-14T23:17:19.047Z,14.80
2023-02-14T23:20:05.890Z,13.52
2023-02-14T23:22:36.263Z,14.15
2023-02-14T23:25:07.283Z,13.88
2023-02-14T23:27:37.164Z,15.18
2023-02-14T23:30:06.556Z,16.35
2023-02-14T23:32:36.681Z,16.45
2023-02-14T23:35:04.698Z,16.67
2023-02-14T23:37:32.528Z,18.38
2023-02-14T23:40:00.493Z,22.10
2023-02-14T23:42:28.484Z,27.73
2023-02-14T23:45:16.411Z,20.15
2023-02-14T23:47:45.921Z,18.25
2023-02-14T23:50:13.793Z,18.35
2023-02-14T23:52:42.597Z,18.20
2023-02-14T23:55:11.419Z,16.35
2023-02-14T23:57:39.876Z,14.05
